Time;durP1;ratioP1;P1;durP2;ratioP2;P2;SDS_P1;SDS_P2;PMS_P1;PMS_P2;Temp;Humidity;BMP_temperature;BMP_pressure;BME280_temperature;BME280_humidity;BME280_pressure;Samples;Min_cycle;Max_cycle;Signal;HPM_P1;HPM_P2
2022/09/29 00:01:38;;;;;;;3.70;3.07;;;10.20;99.90;;;;;;5073794;28;20419;-70
2022/09/29 00:04:03;;;;;;;3.47;3.13;;;10.30;99.90;;;;;;5073247;28;20613;-70
2022/09/29 00:06:29;;;;;;;4.87;3.70;;;10.50;99.90;;;;;;5073922;28;20190;-71
2022/09/29 00:08:56;;;;;;;3.93;3.63;;;10.60;99.90;;;;;;5073664;28;20292;-70
2022/09/29 00:11:22;;;;;;;4.27;3.47;;;10.70;99.90;;;;;;5072378;28;20178;-71
2022/09/29 00:13:48;;;;;;;4.03;3.60;;;10.90;99.90;;;;;;5073427;28;20501;-70
2022/09/29 00:16:13;;;;;;;3.30;3.00;;;10.80;99.90;;;;;;5073484;28;20628;-70
2022/09/29 00:18:39;;;;;;;4.20;3.80;;;10.90;99.90;;;;;;5072614;28;20419;-70
2022/09/29 00:21:15;;;;;;;4.23;3.60;;;11.00;99.90;;;;;;5072532;28;20194;-70
2022/09/29 00:23:41;;;;;;;6.53;4.53;;;11.10;99.90;;;;;;5073160;28;20215;-70
2022/09/29 00:26:12;;;;;;;5.00;3.60;;;11.00;99.90;;;;;;5072762;28;20404;-70
2022/09/29 00:28:41;;;;;;;4.87;4.00;;;11.00;99.90;;;;;;5071875;28;20457;-70
2022/09/29 00:31:09;;;;;;;5.90;4.20;;;11.00;99.90;;;;;;5073118;28;20440;-70
2022/09/29 00:33:36;;;;;;;5.57;4.37;;;11.10;99.90;;;;;;5071908;28;20903;-70
2022/09/29 00:36:07;;;;;;;4.47;4.07;;;11.10;99.90;;;;;;5073410;28;20465;-70
2022/09/29 00:38:33;;;;;;;4.20;3.80;;;11.10;99.90;;;;;;5072214;28;20511;-70
2022/09/29 00:40:59;;;;;;;6.37;5.00;;;11.00;99.90;;;;;;5072987;28;20451;-70
2022/09/29 00:44:03;;;;;;;6.77;4.50;;;11.00;99.90;;;;;;5071427;28;20550;-70
2022/09/29 00:47:01;;;;;;;4.63;4.23;;;11.10;99.90;;;;;;5071872;28;20774;-70
2022/09/29 00:49:35;;;;;;;4.60;4.20;;;11.10;99.90;;;;;;5073023;28;20417;-70
2022/09/29 00:52:25;;;;;;;4.73;4.07;;;10.90;99.90;;;;;;5073032;28;20385;-70
2022/09/29 00:54:58;;;;;;;4.10;3.70;;;11.00;99.90;;;;;;5072347;28;20497;-70
2022/09/29 00:57:28;;;;;;;12.17;4.73;;;11.00;99.90;;;;;;5072210;28;20491;-70
2022/09/29 01:00:04;;;;;;;5.97;3.40;;;11.00;99.90;;;;;;5072520;28;20404;-70
2022/09/29 01:02:32;;;;;;;3.97;3.60;;;11.10;99.90;;;;;;5072526;28;20401;-70
2022/09/29 01:04:59;;;;;;;5.80;3.73;;;11.10;99.90;;;;;;5071211;28;20416;-70
2022/09/29 01:07:26;;;;;;;5.80;3.47;;;11.10;99.90;;;;;;5072790;28;20456;-71
2022/09/29 01:09:55;;;;;;;5.07;4.03;;;11.10;99.90;;;;;;5072425;28;20405;-70
2022/09/29 01:12:21;;;;;;;4.10;3.70;;;11.10;99.90;;;;;;5072537;28;20404;-70
2022/09/29 01:14:48;;;;;;;3.67;3.33;;;11.20;99.90;;;;;;5072289;28;20430;-71
2022/09/29 01:17:14;;;;;;;4.43;3.60;;;11.20;99.90;;;;;;5071250;28;20836;-70
2022/09/29 01:19:49;;;;;;;4.10;3.50;;;11.10;99.90;;;;;;5071353;28;20427;-69
2022/09/29 01:22:58;;;;;;;4.23;3.50;;;11.10;99.90;;;;;;5072804;28;20389;-69
2022/09/29 01:26:09;;;;;;;5.27;4.30;;;11.00;99.90;;;;;;5072284;28;20936;-69
2022/09/29 01:28:58;;;;;;;3.50;3.17;;;11.20;99.90;;;;;;5056134;28;20550;-70
2022/09/29 01:31:42;;;;;;;4.20;3.43;;;11.20;99.90;;;;;;5072425;28;20412;-69
2022/09/29 01:34:25;;;;;;;5.03;3.63;;;11.20;99.90;;;;;;5071134;28;20958;-70
2022/09/29 01:37:05;;;;;;;4.37;3.70;;;11.20;99.90;;;;;;5072549;28;20396;-70
2022/09/29 01:39:58;;;;;;;3.20;2.90;;;11.30;99.90;;;;;;5072207;28;20828;-70
2022/09/29 01:42:33;;;;;;;5.20;3.70;;;11.30;99.90;;;;;;5072672;28;20388;-70
2022/09/29 01:45:12;;;;;;;3.80;3.50;;;11.30;99.90;;;;;;5071923;28;20432;-70
2022/09/29 01:47:46;;;;;;;5.50;3.80;;;11.30;99.90;;;;;;5071853;28;20967;-69
2022/09/29 01:50:35;;;;;;;5.03;3.20;;;11.30;99.90;;;;;;5072005;28;20434;-69
2022/09/29 01:53:07;;;;;;;4.27;3.50;;;11.30;99.90;;;;;;5068440;28;20421;-69
2022/09/29 01:55:36;;;;;;;4.33;3.30;;;11.30;99.90;;;;;;5071884;28;20497;-69
2022/09/29 01:58:06;;;;;;;4.33;2.70;;;11.40;99.90;;;;;;5075704;28;20420;-69
2022/09/29 02:00:53;;;;;;;3.13;2.83;;;11.10;99.90;;;;;;5074069;28;20429;-69
2022/09/29 02:03:22;;;;;;;4.47;3.37;;;11.00;99.90;;;;;;5076034;28;20431;-70
2022/09/29 02:05:54;;;;;;;3.47;3.17;;;10.90;99.90;;;;;;5076045;28;20829;-70
2022/09/29 02:08:35;;;;;;;4.50;3.00;;;11.10;99.90;;;;;;5075669;28;20447;-70
2022/09/29 02:11:06;;;;;;;3.73;3.10;;;11.30;99.90;;;;;;5076265;28;20403;-71
2022/09/29 02:13:41;;;;;;;8.43;6.20;;;11.40;99.90;;;;;;5075124;28;20780;-71
2022/09/29 02:16:15;;;;;;;6.93;4.80;;;11.30;99.90;;;;;;5075854;28;20388;-68
2022/09/29 02:19:06;;;;;;;6.43;5.57;;;11.40;99.90;;;;;;5075846;28;20400;-71
2022/09/29 02:21:32;;;;;;;8.77;5.30;;;11.40;99.90;;;;;;5074399;28;20423;-71
2022/09/29 02:23:58;;;;;;;5.80;4.87;;;11.50;99.90;;;;;;5097737;23;20488;-71
2022/09/29 02:26:30;;;;;;;4.00;3.60;;;11.50;99.90;;;;;;5076730;28;20491;-71
2022/09/29 02:28:56;;;;;;;5.10;3.93;;;11.40;99.90;;;;;;5076426;28;20231;-70
2022/09/29 02:31:23;;;;;;;5.27;3.60;;;11.50;99.90;;;;;;5075526;28;20413;-71
2022/09/29 02:33:48;;;;;;;4.73;3.00;;;11.50;99.90;;;;;;5075706;28;20432;-71
2022/09/29 02:36:33;;;;;;;5.90;3.63;;;11.50;99.90;;;;;;5075288;28;20925;-71
2022/09/29 02:39:08;;;;;;;4.40;3.50;;;11.60;99.90;;;;;;5075847;28;20173;-72
2022/09/29 02:41:45;;;;;;;4.20;3.50;;;11.60;99.90;;;;;;5073470;28;20416;-71
2022/09/29 02:44:52;;;;;;;7.53;3.97;;;11.60;99.90;;;;;;5075892;28;20502;-70
2022/09/29 02:47:57;;;;;;;5.23;2.90;;;11.60;99.90;;;;;;5056278;28;20452;-72
2022/09/29 02:50:42;;;;;;;4.20;3.23;;;11.60;99.90;;;;;;5069512;28;20416;-71
2022/09/29 02:53:34;;;;;;;5.00;3.30;;;11.60;99.90;;;;;;5075919;28;20382;-71
2022/09/29 02:56:33;;;;;;;4.00;2.70;;;11.60;99.90;;;;;;5075552;28;20381;-72
2022/09/29 02:59:11;;;;;;;2.83;2.63;;;11.70;99.90;;;;;;5075521;28;20406;-72
2022/09/29 03:01:49;;;;;;;3.80;3.17;;;11.60;99.90;;;;;;5074292;28;20410;-70
2022/09/29 03:04:15;;;;;;;3.60;2.60;;;11.60;99.90;;;;;;5075520;28;20429;-72
2022/09/29 03:06:41;;;;;;;3.40;3.10;;;11.60;99.90;;;;;;5074157;28;20409;-72
2022/09/29 03:09:06;;;;;;;3.80;3.50;;;11.60;99.90;;;;;;5073995;28;20449;-71
2022/09/29 03:11:32;;;;;;;4.87;3.17;;;11.70;99.90;;;;;;5075380;28;20166;-72
2022/09/29 03:13:58;;;;;;;3.10;2.80;;;11.70;99.90;;;;;;5075236;28;20189;-72
2022/09/29 03:16:23;;;;;;;3.57;3.00;;;11.70;99.90;;;;;;5075137;28;20165;-72
2022/09/29 03:18:49;;;;;;;2.73;2.43;;;11.70;99.90;;;;;;5075448;28;20174;-71
2022/09/29 03:21:15;;;;;;;3.97;3.27;;;11.60;99.90;;;;;;5073897;28;20312;-71
2022/09/29 03:23:40;;;;;;;2.90;2.70;;;11.50;99.90;;;;;;5074750;28;20832;-72
2022/09/29 03:26:06;;;;;;;3.47;3.00;;;11.40;99.90;;;;;;5073834;28;20213;-70
2022/09/29 03:28:32;;;;;;;2.90;2.60;;;11.40;99.90;;;;;;5074752;28;20694;-71
2022/09/29 03:31:04;;;;;;;4.10;3.30;;;11.30;99.90;;;;;;5074858;28;20642;-71
2022/09/29 03:33:30;;;;;;;3.70;3.40;;;11.20;99.90;;;;;;5074758;28;20528;-71
2022/09/29 03:35:55;;;;;;;4.10;2.87;;;11.20;99.90;;;;;;5073752;28;20410;-70
2022/09/29 03:38:21;;;;;;;3.20;2.80;;;11.10;99.90;;;;;;5075161;28;20166;-71
2022/09/29 03:40:46;;;;;;;3.23;2.70;;;11.10;99.90;;;;;;5074890;28;20177;-71
2022/09/29 03:43:12;;;;;;;2.40;2.20;;;11.10;99.90;;;;;;5074886;28;20172;-72
2022/09/29 03:45:46;;;;;;;2.90;2.47;;;11.00;99.90;;;;;;5075357;28;20203;-71
2022/09/29 03:48:11;;;;;;;4.97;2.87;;;10.90;99.90;;;;;;5075615;28;20178;-71
2022/09/29 03:50:37;;;;;;;2.90;2.70;;;10.80;99.90;;;;;;5074233;28;20411;-71
2022/09/29 03:53:02;;;;;;;5.90;3.00;;;10.80;99.90;;;;;;5074363;28;20174;-72
2022/09/29 03:55:28;;;;;;;3.33;3.00;;;10.70;99.90;;;;;;5074630;28;20331;-71
2022/09/29 03:57:53;;;;;;;3.60;3.00;;;10.60;99.90;;;;;;5074222;28;20263;-71
2022/09/29 04:00:19;;;;;;;3.00;2.70;;;10.50;99.90;;;;;;5074027;28;20574;-71
2022/09/29 04:02:44;;;;;;;4.83;2.60;;;10.50;99.90;;;;;;5074035;28;20162;-71
2022/09/29 04:05:10;;;;;;;4.70;2.93;;;10.40;99.90;;;;;;5074094;28;20220;-71
2022/09/29 04:07:35;;;;;;;4.07;2.80;;;10.30;99.90;;;;;;5072450;28;20298;-71
2022/09/29 04:10:01;;;;;;;3.90;2.97;;;10.30;99.90;;;;;;5073314;28;20172;-73
2022/09/29 04:12:26;;;;;;;2.67;2.40;;;10.20;99.90;;;;;;5073594;28;20163;-72
2022/09/29 04:14:52;;;;;;;2.80;2.60;;;10.20;99.90;;;;;;5073794;28;20307;-71
2022/09/29 04:17:18;;;;;;;3.33;2.70;;;10.20;99.90;;;;;;5073985;28;20164;-71
2022/09/29 04:19:43;;;;;;;4.70;2.90;;;10.20;99.90;;;;;;5071156;28;20184;-72
2022/09/29 04:22:09;;;;;;;4.00;3.60;;;10.10;99.90;;;;;;5072149;28;20199;-71
2022/09/29 04:24:34;;;;;;;5.30;3.60;;;10.00;99.90;;;;;;5073636;28;20208;-71
2022/09/29 04:27:00;;;;;;;4.50;3.03;;;9.90;99.90;;;;;;5073551;28;20216;-71
2022/09/29 04:29:25;;;;;;;3.97;2.50;;;9.90;99.90;;;;;;5073599;28;20191;-71
2022/09/29 04:31:51;;;;;;;3.30;3.00;;;9.90;99.90;;;;;;5073913;28;20191;-70
2022/09/29 04:34:17;;;;;;;4.43;3.73;;;9.90;99.90;;;;;;5073776;28;20189;-70
2022/09/29 04:36:42;;;;;;;6.57;3.90;;;9.90;99.90;;;;;;5072978;28;20168;-71
2022/09/29 04:39:08;;;;;;;5.37;4.80;;;9.90;99.90;;;;;;5073392;28;20166;-70
2022/09/29 04:41:34;;;;;;;3.40;3.10;;;9.90;99.90;;;;;;5068503;28;20171;-71
2022/09/29 04:44:01;;;;;;;3.77;3.47;;;9.80;99.90;;;;;;5073925;28;20189;-72
2022/09/29 04:46:27;;;;;;;4.30;3.90;;;9.80;99.90;;;;;;5064667;28;20431;-72
2022/09/29 04:48:52;;;;;;;6.13;4.40;;;9.90;99.90;;;;;;5070210;28;20810;-72
2022/09/29 04:51:18;;;;;;;5.10;3.90;;;9.80;99.90;;;;;;5072830;28;20213;-71
2022/09/29 04:53:43;;;;;;;4.47;4.07;;;9.80;99.90;;;;;;5073305;28;20276;-71
2022/09/29 04:56:09;;;;;;;6.00;5.00;;;9.80;99.90;;;;;;5073365;28;20158;-72
2022/09/29 04:58:35;;;;;;;4.90;4.47;;;9.70;99.90;;;;;;5073400;28;20164;-72
2022/09/29 05:01:09;;;;;;;4.07;3.70;;;9.70;99.90;;;;;;5073377;28;20457;-71
2022/09/29 05:03:34;;;;;;;4.80;4.30;;;9.70;99.90;;;;;;5073257;28;20561;-70
2022/09/29 05:06:00;;;;;;;6.10;4.20;;;9.80;99.90;;;;;;5072856;28;20406;-71
2022/09/29 05:08:26;;;;;;;6.03;4.00;;;9.80;99.90;;;;;;5071247;28;20261;-72
2022/09/29 05:10:51;;;;;;;4.30;3.93;;;9.80;99.90;;;;;;5073692;28;20162;-72
2022/09/29 05:13:17;;;;;;;4.43;3.90;;;9.70;99.90;;;;;;5073276;28;20176;-71
2022/09/29 05:15:42;;;;;;;19.80;15.63;;;9.70;99.90;;;;;;5073077;28;20192;-71
2022/09/29 05:18:08;;;;;;;12.23;9.97;;;9.70;99.90;;;;;;5072134;28;20267;-70
2022/09/29 05:20:33;;;;;;;9.50;8.23;;;9.70;99.90;;;;;;5071767;28;20175;-72
2022/09/29 05:22:59;;;;;;;7.33;6.47;;;9.80;99.90;;;;;;5073164;28;20184;-72
2022/09/29 05:25:26;;;;;;;4.57;4.17;;;9.80;99.90;;;;;;5072777;28;20251;-72
2022/09/29 05:27:52;;;;;;;3.70;3.40;;;9.80;99.90;;;;;;5072080;28;20611;-71
2022/09/29 05:30:17;;;;;;;5.97;3.80;;;9.80;99.90;;;;;;5072658;28;20492;-72
2022/09/29 05:32:43;;;;;;;7.80;5.90;;;9.70;99.90;;;;;;5076936;28;20257;-72
2022/09/29 05:35:09;;;;;;;12.87;10.33;;;9.80;99.90;;;;;;5077116;28;20549;-71
2022/09/29 05:37:35;;;;;;;11.90;10.70;;;9.80;99.90;;;;;;5076755;28;20184;-71
2022/09/29 05:40:00;;;;;;;8.40;7.10;;;9.70;99.90;;;;;;5075722;28;20166;-71
2022/09/29 05:42:26;;;;;;;5.70;4.73;;;9.60;99.90;;;;;;5076715;28;20238;-72
2022/09/29 05:44:52;;;;;;;6.00;5.27;;;9.60;99.90;;;;;;5076673;28;20288;-71
2022/09/29 05:47:17;;;;;;;6.33;4.77;;;9.70;99.90;;;;;;5076614;28;20179;-72
2022/09/29 05:49:43;;;;;;;6.83;6.23;;;9.80;99.90;;;;;;5075265;28;20242;-72
2022/09/29 05:52:08;;;;;;;12.63;10.83;;;9.80;99.90;;;;;;5076925;28;20223;-71
2022/09/29 05:54:34;;;;;;;9.60;8.60;;;9.80;99.90;;;;;;5075454;28;20185;-71
2022/09/29 05:56:59;;;;;;;7.30;6.43;;;9.90;99.90;;;;;;5075287;28;20175;-71
2022/09/29 05:59:25;;;;;;;6.30;4.53;;;9.90;99.90;;;;;;5076083;28;20219;-71
2022/09/29 06:01:50;;;;;;;7.33;4.97;;;10.00;99.90;;;;;;5075604;28;20173;-71
2022/09/29 06:04:16;;;;;;;3.50;3.20;;;10.00;99.90;;;;;;5075977;28;20659;-71
2022/09/29 06:06:42;;;;;;;4.50;3.47;;;10.10;99.90;;;;;;5075595;28;20590;-71
2022/09/29 06:09:08;;;;;;;4.90;4.00;;;10.00;99.90;;;;;;5076150;28;20665;-71
2022/09/29 06:11:33;;;;;;;4.27;3.87;;;10.00;99.90;;;;;;5076274;28;20902;-71
2022/09/29 06:14:01;;;;;;;5.60;4.37;;;10.00;99.90;;;;;;5076094;28;20940;-71
2022/09/29 06:16:29;;;;;;;5.13;4.63;;;10.00;99.90;;;;;;5076680;28;20219;-71
2022/09/29 06:18:55;;;;;;;5.80;4.97;;;9.80;99.90;;;;;;5076229;28;20404;-71
2022/09/29 06:21:23;;;;;;;5.80;5.20;;;9.80;99.90;;;;;;5074624;28;20458;-71
2022/09/29 06:23:49;;;;;;;6.37;5.43;;;9.90;99.90;;;;;;5075789;28;20895;-71
2022/09/29 06:26:17;;;;;;;4.93;4.53;;;10.10;99.90;;;;;;5075824;28;20393;-72
2022/09/29 06:28:43;;;;;;;5.20;4.67;;;10.30;99.90;;;;;;5075983;28;20458;-71
2022/09/29 06:31:15;;;;;;;5.13;4.63;;;10.40;99.90;;;;;;5076536;28;20400;-70
2022/09/29 06:33:41;;;;;;;6.13;3.83;;;10.50;99.90;;;;;;5074496;28;20170;-72
2022/09/29 06:39:05;;;;;;;5.83;4.90;;;10.80;99.90;;;;;;5075501;28;20411;-72
2022/09/29 06:41:31;;;;;;;8.20;4.63;;;10.80;99.90;;;;;;5074301;28;20418;-72
2022/09/29 06:43:56;;;;;;;5.40;4.90;;;10.60;99.90;;;;;;5074301;28;20570;-71
2022/09/29 06:46:23;;;;;;;4.20;3.80;;;10.70;99.90;;;;;;5075795;28;20169;-71
2022/09/29 06:48:48;;;;;;;5.03;4.60;;;10.90;99.90;;;;;;5075496;28;20701;-71
2022/09/29 06:51:14;;;;;;;5.10;3.67;;;11.10;99.90;;;;;;5075361;28;20413;-71
2022/09/29 06:53:40;;;;;;;4.27;3.97;;;11.20;99.90;;;;;;5075321;28;20166;-71
2022/09/29 06:56:07;;;;;;;4.97;4.53;;;11.20;99.90;;;;;;5075586;28;20172;-72
2022/09/29 06:58:33;;;;;;;5.80;5.30;;;11.30;99.90;;;;;;5075828;28;20415;-72
2022/09/29 07:01:00;;;;;;;6.10;5.47;;;11.40;99.90;;;;;;5075594;28;20404;-71
2022/09/29 07:03:27;;;;;;;6.20;4.80;;;11.40;99.90;;;;;;5075368;28;20167;-70
2022/09/29 07:05:52;;;;;;;5.67;4.80;;;11.50;99.90;;;;;;5074785;28;20443;-71
2022/09/29 07:08:18;;;;;;;6.10;4.87;;;11.40;99.90;;;;;;5074922;28;20482;-71
2022/09/29 07:10:45;;;;;;;6.77;4.17;;;11.40;99.90;;;;;;5075011;28;20197;-71
2022/09/29 07:13:10;;;;;;;5.80;4.87;;;11.40;99.90;;;;;;5075332;28;20642;-70
2022/09/29 07:15:36;;;;;;;5.80;5.20;;;11.50;99.90;;;;;;5073671;28;20463;-72
2022/09/29 07:18:03;;;;;;;7.07;5.00;;;11.60;99.90;;;;;;5075500;28;20167;-72
2022/09/29 07:20:30;;;;;;;5.63;5.13;;;11.50;99.90;;;;;;5073932;28;20417;-73
2022/09/29 07:22:56;;;;;;;4.70;4.30;;;11.50;99.90;;;;;;5074857;28;20435;-72
2022/09/29 07:25:23;;;;;;;4.40;3.93;;;11.60;99.90;;;;;;5074831;28;20489;-73
2022/09/29 07:27:50;;;;;;;5.40;4.90;;;11.70;99.90;;;;;;5073700;28;20452;-71
2022/09/29 07:30:17;;;;;;;5.87;5.37;;;11.70;99.90;;;;;;5074701;28;20400;-71
2022/09/29 07:32:44;;;;;;;7.03;4.80;;;11.50;99.90;;;;;;5075040;28;20404;-70
2022/09/29 07:35:09;;;;;;;6.87;4.77;;;11.60;99.90;;;;;;5074583;28;20933;-71
2022/09/29 07:37:35;;;;;;;4.80;3.40;;;11.70;99.90;;;;;;5073817;28;20404;-71
2022/09/29 07:40:00;;;;;;;6.77;4.20;;;11.70;99.90;;;;;;5065102;28;20176;-70
2022/09/29 07:42:29;;;;;;;4.97;4.43;;;11.80;99.90;;;;;;5075111;28;20696;-72
2022/09/29 07:44:55;;;;;;;5.00;4.60;;;12.10;99.90;;;;;;5073376;28;20193;-72
2022/09/29 07:47:20;;;;;;;5.17;4.17;;;12.30;99.90;;;;;;5074308;28;20409;-73
2022/09/29 07:49:46;;;;;;;5.30;4.80;;;12.40;99.90;;;;;;5074648;28;20251;-72
2022/09/29 07:52:13;;;;;;;4.70;4.30;;;12.60;99.90;;;;;;5072328;28;20255;-72
2022/09/29 07:54:38;;;;;;;4.90;4.40;;;12.40;99.90;;;;;;5073505;28;20188;-71
2022/09/29 07:57:04;;;;;;;7.77;6.17;;;12.40;99.90;;;;;;5074103;28;20894;-72
2022/09/29 07:59:30;;;;;;;7.40;6.37;;;12.60;99.90;;;;;;5074615;28;20249;-70
2022/09/29 08:01:56;;;;;;;9.30;5.60;;;12.30;99.90;;;;;;5073971;28;20179;-71
2022/09/29 08:04:21;;;;;;;5.87;5.17;;;12.50;99.90;;;;;;5074208;28;20514;-71
2022/09/29 08:06:47;;;;;;;6.17;5.20;;;12.60;99.90;;;;;;5073714;28;20244;-71
2022/09/29 08:09:13;;;;;;;5.37;4.87;;;12.60;99.90;;;;;;5073863;28;20189;-71
2022/09/29 08:11:41;;;;;;;6.50;5.30;;;12.80;99.90;;;;;;5071323;28;20252;-72
2022/09/29 08:14:08;;;;;;;5.80;5.20;;;12.90;99.90;;;;;;5073976;28;20428;-70
2022/09/29 08:16:34;;;;;;;8.20;5.73;;;13.00;99.90;;;;;;5073929;28;20888;-71
2022/09/29 08:19:00;;;;;;;16.40;10.00;;;13.00;99.90;;;;;;5074379;28;20415;-71
2022/09/29 08:21:26;;;;;;;8.87;6.30;;;13.10;99.90;;;;;;5072598;28;20414;-71
2022/09/29 08:26:23;;;;;;;5.57;4.87;;;13.40;99.90;;;;;;5052874;28;20215;-71
2022/09/29 08:28:49;;;;;;;6.33;5.73;;;13.20;99.90;;;;;;5053468;28;20819;-72
2022/09/29 08:31:19;;;;;;;6.13;5.40;;;13.20;99.90;;;;;;5053457;28;20167;-71
2022/09/29 08:33:45;;;;;;;6.13;5.53;;;13.20;99.90;;;;;;5053539;28;20173;-70
2022/09/29 08:36:13;;;;;;;6.93;5.37;;;13.40;99.90;;;;;;5053078;28;20435;-70
2022/09/29 08:38:53;;;;;;;8.27;5.37;;;13.30;99.90;;;;;;5053798;28;20420;-70
2022/09/29 08:41:22;;;;;;;5.30;4.80;;;13.40;99.90;;;;;;5035745;28;20513;-70
2022/09/29 08:43:53;;;;;;;5.93;5.37;;;13.70;99.90;;;;;;5054501;28;20407;-70
2022/09/29 08:46:25;;;;;;;5.67;5.23;;;14.00;99.90;;;;;;5053513;28;20397;-70
2022/09/29 08:48:52;;;;;;;6.50;4.73;;;14.20;99.90;;;;;;5053393;28;20488;-66
2022/09/29 08:51:24;;;;;;;6.57;4.50;;;14.30;99.90;;;;;;5052928;28;20406;-70
2022/09/29 08:53:53;;;;;;;4.60;4.20;;;14.60;99.90;;;;;;5053266;28;20384;-69
2022/09/29 08:56:19;;;;;;;5.93;4.17;;;14.50;99.90;;;;;;5053241;28;20411;-71
2022/09/29 08:58:44;;;;;;;8.53;5.00;;;14.70;99.90;;;;;;5035758;28;20418;-72
2022/09/29 09:01:43;;;;;;;4.73;4.33;;;13.90;99.90;;;;;;5053972;28;20239;-69
2022/09/29 09:04:15;;;;;;;8.00;4.83;;;13.70;99.90;;;;;;5042599;28;20289;-70
2022/09/29 09:06:49;;;;;;;5.33;4.47;;;13.70;99.90;;;;;;5053169;28;20485;-71
2022/09/29 09:09:33;;;;;;;6.83;4.50;;;14.10;99.90;;;;;;5055261;28;20769;-72
2022/09/29 09:12:12;;;;;;;5.87;4.50;;;14.30;99.90;;;;;;5061749;28;20385;-71
2022/09/29 09:14:54;;;;;;;5.60;4.97;;;14.70;99.90;;;;;;5064043;28;20424;-73
2022/09/29 09:17:50;;;;;;;4.30;4.00;;;14.50;99.90;;;;;;5062258;28;20403;-69
2022/09/29 09:20:27;;;;;;;4.00;3.53;;;14.20;99.90;;;;;;5059463;28;20389;-69
2022/09/29 09:23:03;;;;;;;4.00;3.70;;;13.80;99.90;;;;;;5061032;28;20467;-71
2022/09/29 09:25:30;;;;;;;4.77;4.07;;;13.90;99.90;;;;;;5062890;28;20437;-71
2022/09/29 09:28:05;;;;;;;6.00;4.17;;;14.30;99.90;;;;;;5063477;28;20461;-71
2022/09/29 09:30:40;;;;;;;7.80;4.60;;;13.80;99.90;;;;;;5062783;28;20401;-70
2022/09/29 09:33:22;;;;;;;4.17;3.70;;;13.40;99.90;;;;;;5060837;28;20476;-71
2022/09/29 09:35:57;;;;;;;7.27;4.00;;;13.70;99.90;;;;;;5053721;28;20415;-69
2022/09/29 09:38:57;;;;;;;7.00;3.57;;;13.90;99.90;;;;;;5052033;28;20391;-69
2022/09/29 09:41:24;;;;;;;4.67;4.17;;;14.10;99.90;;;;;;5052267;28;20412;-70
2022/09/29 09:44:03;;;;;;;5.63;4.30;;;14.30;99.90;;;;;;5052776;28;20407;-70
2022/09/29 09:46:37;;;;;;;4.67;4.23;;;14.30;99.90;;;;;;5052695;28;20389;-71
2022/09/29 09:49:27;;;;;;;4.67;3.50;;;14.60;99.90;;;;;;5052491;28;20439;-71
2022/09/29 09:52:02;;;;;;;4.87;3.87;;;14.60;99.90;;;;;;5051703;28;20795;-71
2022/09/29 09:54:36;;;;;;;7.23;4.27;;;14.80;99.90;;;;;;5052305;28;20427;-70
2022/09/29 09:57:37;;;;;;;5.47;3.77;;;14.90;99.90;;;;;;5052576;28;20382;-69
2022/09/29 10:00:08;;;;;;;4.37;3.93;;;15.00;99.90;;;;;;5052246;28;20814;-69
2022/09/29 10:02:34;;;;;;;4.40;3.97;;;15.40;99.90;;;;;;5052619;28;20371;-70
2022/09/29 10:05:00;;;;;;;4.50;4.10;;;15.50;99.90;;;;;;5052309;28;20431;-70
2022/09/29 10:07:29;;;;;;;6.20;4.00;;;15.50;99.90;;;;;;5051950;28;20400;-70
2022/09/29 10:09:56;;;;;;;6.30;3.53;;;15.00;99.90;;;;;;5052366;28;20165;-70
2022/09/29 10:12:23;;;;;;;4.57;3.53;;;14.80;99.90;;;;;;5052624;28;20407;-69
2022/09/29 10:15:04;;;;;;;3.40;3.03;;;14.90;99.90;;;;;;5051710;28;20430;-69
2022/09/29 10:17:37;;;;;;;3.77;3.40;;;15.10;99.90;;;;;;5055690;28;20855;-69
2022/09/29 10:20:05;;;;;;;6.23;3.60;;;15.20;99.90;;;;;;5056192;28;20858;-69
2022/09/29 10:22:32;;;;;;;3.37;2.73;;;15.20;99.90;;;;;;5054569;28;20581;-68
2022/09/29 10:25:17;;;;;;;3.30;3.00;;;15.00;99.90;;;;;;5055682;28;20511;-68
2022/09/29 10:27:47;;;;;;;3.70;2.90;;;15.00;99.90;;;;;;5055094;28;20551;-68
2022/09/29 10:30:18;;;;;;;4.23;3.10;;;15.20;99.90;;;;;;5055053;28;20751;-68
2022/09/29 10:32:45;;;;;;;3.17;2.70;;;15.70;99.90;;;;;;5044494;28;20495;-68
2022/09/29 10:35:13;;;;;;;3.23;2.53;;;16.00;99.90;;;;;;5054836;28;20443;-68
2022/09/29 10:37:45;;;;;;;4.33;3.23;;;16.30;99.90;;;;;;5055553;28;20417;-68
2022/09/29 10:40:20;;;;;;;3.40;3.07;;;16.70;99.90;;;;;;5054726;28;20499;-68
2022/09/29 10:42:47;;;;;;;5.87;2.97;;;15.90;99.90;;;;;;5055158;28;20893;-68
2022/09/29 10:45:25;;;;;;;3.30;2.43;;;15.90;99.90;;;;;;5054063;28;20455;-70
2022/09/29 10:47:56;;;;;;;3.40;2.80;;;16.10;99.90;;;;;;5054166;28;21001;-69
2022/09/29 10:50:28;;;;;;;3.37;2.90;;;16.20;99.90;;;;;;5055307;28;20415;-70
2022/09/29 10:53:00;;;;;;;6.40;3.17;;;16.20;99.90;;;;;;5055338;28;20769;-68
2022/09/29 10:55:34;;;;;;;5.43;3.70;;;16.00;99.90;;;;;;5055378;28;20424;-68
2022/09/29 10:58:22;;;;;;;2.87;2.30;;;16.40;99.90;;;;;;5055161;28;20758;-69
2022/09/29 11:00:48;;;;;;;3.67;2.93;;;16.20;99.90;;;;;;5055054;28;20390;-68
2022/09/29 11:03:21;;;;;;;3.30;2.60;;;16.40;99.90;;;;;;5055128;28;20903;-69
2022/09/29 11:05:58;;;;;;;4.77;2.80;;;16.70;99.90;;;;;;5055238;28;20194;-69
2022/09/29 11:08:27;;;;;;;3.23;2.77;;;17.10;99.90;;;;;;5054882;28;20459;-71
2022/09/29 11:11:18;;;;;;;3.03;2.57;;;17.20;99.90;;;;;;5055565;28;20833;-70
2022/09/29 11:13:45;;;;;;;3.33;2.70;;;17.40;99.90;;;;;;5055499;28;20390;-68
2022/09/29 11:16:24;;;;;;;3.40;2.40;;;17.50;99.90;;;;;;5054486;28;20432;-68
2022/09/29 11:18:52;;;;;;;2.60;1.90;;;17.50;99.90;;;;;;5054675;28;20374;-68
2022/09/29 11:21:36;;;;;;;3.67;2.20;;;17.30;99.90;;;;;;5053500;28;20400;-68
2022/09/29 11:24:27;;;;;;;4.67;2.67;;;17.50;99.90;;;;;;5054101;28;20413;-68
2022/09/29 11:27:04;;;;;;;2.10;1.90;;;17.40;99.90;;;;;;5054374;28;20845;-69
2022/09/29 11:29:47;;;;;;;5.20;2.43;;;17.20;99.90;;;;;;5053995;28;21004;-68
2022/09/29 11:32:34;;;;;;;3.70;2.67;;;17.20;99.90;;;;;;5054546;28;20472;-68
2022/09/29 11:35:20;;;;;;;4.13;2.27;;;17.00;99.90;;;;;;5054541;28;20567;-69
2022/09/29 11:38:01;;;;;;;5.43;2.50;;;17.00;99.90;;;;;;5053556;28;20393;-71
2022/09/29 11:41:08;;;;;;;3.73;2.23;;;16.90;99.90;;;;;;5054049;28;20419;-71
2022/09/29 11:43:50;;;;;;;3.00;2.20;;;17.00;99.90;;;;;;5053958;28;20462;-71
2022/09/29 11:46:44;;;;;;;4.00;2.40;;;16.80;99.90;;;;;;5054315;28;20392;-72
2022/09/29 11:49:30;;;;;;;3.77;2.20;;;16.80;99.90;;;;;;5053943;28;20433;-69
2022/09/29 11:52:31;;;;;;;4.47;2.50;;;16.60;99.90;;;;;;5053863;28;20503;-68
2022/09/29 11:55:00;;;;;;;2.33;2.10;;;16.20;99.90;;;;;;5054049;28;20416;-69
2022/09/29 11:57:28;;;;;;;2.80;2.00;;;16.70;99.90;;;;;;5053987;28;20818;-69
2022/09/29 12:00:08;;;;;;;3.13;2.27;;;17.90;99.90;;;;;;5053804;28;20911;-69
2022/09/29 12:03:06;;;;;;;2.20;2.00;;;17.70;99.90;;;;;;5054055;28;20386;-71
2022/09/29 12:05:48;;;;;;;2.20;1.97;;;18.00;99.90;;;;;;5053837;28;20839;-69
2022/09/29 12:08:51;;;;;;;4.97;2.33;;;18.40;99.90;;;;;;5053193;28;20441;-69
2022/09/29 12:11:30;;;;;;;3.43;2.57;;;17.90;99.90;;;;;;5054069;28;20373;-70
2022/09/29 12:14:24;;;;;;;3.23;2.40;;;17.40;99.90;;;;;;5053662;28;20419;-70
2022/09/29 12:16:58;;;;;;;3.40;2.57;;;16.80;99.90;;;;;;5052331;28;20423;-70
2022/09/29 12:19:28;;;;;;;3.63;1.97;;;16.80;99.90;;;;;;5053478;28;20416;-69
2022/09/29 12:21:56;;;;;;;3.93;2.47;;;17.20;99.90;;;;;;5052768;28;20417;-69
2022/09/29 12:24:40;;;;;;;2.43;2.03;;;16.90;99.90;;;;;;5052758;28;20478;-69
2022/09/29 12:27:36;;;;;;;4.13;2.00;;;16.90;99.90;;;;;;5053579;28;20385;-69
2022/09/29 12:30:17;;;;;;;3.00;1.73;;;16.80;99.90;;;;;;5051462;28;20915;-70
2022/09/29 12:32:58;;;;;;;3.47;2.17;;;17.20;99.90;;;;;;5033190;28;20917;-70
2022/09/29 12:35:45;;;;;;;2.37;1.60;;;17.80;99.90;;;;;;5034905;28;21330;-71
2022/09/29 12:38:18;;;;;;;2.20;1.60;;;18.10;99.90;;;;;;5053254;28;20386;-70
2022/09/29 12:41:04;;;;;;;1.60;1.40;;;18.30;99.80;;;;;;5051370;28;20413;-70
2022/09/29 12:43:57;;;;;;;2.03;1.63;;;18.50;99.50;;;;;;5053190;28;20385;-71
2022/09/29 12:46:44;;;;;;;3.90;1.90;;;18.30;98.90;;;;;;5051956;28;20409;-70
2022/09/29 12:49:18;;;;;;;3.93;1.83;;;17.90;99.00;;;;;;5052930;28;20517;-71
2022/09/29 12:51:47;;;;;;;4.30;2.00;;;17.70;99.50;;;;;;5052050;28;20416;-70
2022/09/29 12:54:45;;;;;;;3.70;2.07;;;17.40;99.90;;;;;;5053071;28;20425;-70
2022/09/29 12:57:14;;;;;;;3.53;2.00;;;17.30;99.90;;;;;;5048952;28;20938;-68
2022/09/29 12:59:47;;;;;;;1.93;1.73;;;17.10;99.90;;;;;;5052920;28;20409;-69
2022/09/29 13:02:21;;;;;;;3.40;1.40;;;16.80;99.90;;;;;;5052657;28;20599;-69
2022/09/29 13:05:32;;;;;;;2.97;1.73;;;16.90;99.90;;;;;;5052793;28;20805;-69
2022/09/29 13:08:03;;;;;;;3.70;2.07;;;16.90;99.70;;;;;;5053307;28;20468;-69
2022/09/29 13:10:48;;;;;;;3.20;1.50;;;16.80;99.80;;;;;;5052728;28;20390;-69
2022/09/29 13:13:47;;;;;;;1.60;1.20;;;16.50;99.90;;;;;;5052450;28;20388;-69
2022/09/29 13:16:35;;;;;;;2.33;1.47;;;16.80;99.80;;;;;;5052601;28;20401;-68
2022/09/29 13:19:22;;;;;;;2.57;1.60;;;17.00;99.90;;;;;;5052794;28;20412;-69
2022/09/29 13:22:25;;;;;;;1.83;1.47;;;17.10;99.90;;;;;;5052139;28;20564;-70